sensor_id;sensor_type;location;lat;lon;timestamp;temperature;humidity
51637;DHT22;37713;53.254;6.460;2023-05-01T00:00:49;7.50;99.90
51637;DHT22;37713;53.254;6.460;2023-05-01T00:03:15;7.50;99.90
51637;DHT22;37713;53.254;6.460;2023-05-01T00:05:45;7.50;99.90
51637;DHT22;37713;53.254;6.460;2023-05-01T00:08:11;7.50;99.90
51637;DHT22;37713;53.254;6.460;2023-05-01T00:10:37;7.50;99.90
51637;DHT22;37713;53.254;6.460;2023-05-01T00:13:04;7.40;99.90
51637;DHT22;37713;53.254;6.460;2023-05-01T00:15:30;7.50;99.90
51637;DHT22;37713;53.254;6.460;2023-05-01T00:17:56;7.40;99.90
51637;DHT22;37713;53.254;6.460;2023-05-01T00:20:29;7.40;99.90
51637;DHT22;37713;53.254;6.460;2023-05-01T00:22:57;7.40;99.90
51637;DHT22;37713;53.254;6.460;2023-05-01T00:25:23;7.30;99.90
51637;DHT22;37713;53.254;6.460;2023-05-01T00:27:49;7.30;99.90
51637;DHT22;37713;53.254;6.460;2023-05-01T00:30:15;7.30;99.90
51637;DHT22;37713;53.254;6.460;2023-05-01T00:32:41;7.30;99.90
51637;DHT22;37713;53.254;6.460;2023-05-01T00:35:07;7.20;99.90
51637;DHT22;37713;53.254;6.460;2023-05-01T00:37:33;7.20;99.90
51637;DHT22;37713;53.254;6.460;2023-05-01T00:39:59;7.20;99.90
51637;DHT22;37713;53.254;6.460;2023-05-01T00:42:24;7.20;99.90
51637;DHT22;37713;53.254;6.460;2023-05-01T00:44:50;7.10;99.90
51637;DHT22;37713;53.254;6.460;2023-05-01T00:47:16;7.10;99.90
51637;DHT22;37713;53.254;6.460;2023-05-01T00:49:43;7.10;99.90
51637;DHT22;37713;53.254;6.460;2023-05-01T00:52:09;7.10;99.90
51637;DHT22;37713;53.254;6.460;2023-05-01T00:54:36;7.00;99.90
51637;DHT22;37713;53.254;6.460;2023-05-01T00:57:02;7.00;99.90
51637;DHT22;37713;53.254;6.460;2023-05-01T00:59:28;7.00;99.90
51637;DHT22;37713;53.254;6.460;2023-05-01T01:01:54;7.00;99.90
51637;DHT22;37713;53.254;6.460;2023-05-01T01:04:20;7.00;99.90
51637;DHT22;37713;53.254;6.460;2023-05-01T01:26:47;6.90;99.90
51637;DHT22;37713;53.254;6.460;2023-05-01T01:32:30;6.90;99.90
51637;DHT22;37713;53.254;6.460;2023-05-01T01:35:25;6.90;99.90
51637;DHT22;37713;53.254;6.460;2023-05-01T01:38:08;6.80;99.90
51637;DHT22;37713;53.254;6.460;2023-05-01T01:40:38;6.80;99.90
51637;DHT22;37713;53.254;6.460;2023-05-01T01:43:11;6.80;99.90
51637;DHT22;37713;53.254;6.460;2023-05-01T01:45:47;6.80;99.90
51637;DHT22;37713;53.254;6.460;2023-05-01T01:48:21;6.80;99.90
51637;DHT22;37713;53.254;6.460;2023-05-01T01:50:48;6.80;99.90
51637;DHT22;37713;53.254;6.460;2023-05-01T01:53:17;6.70;99.90
51637;DHT22;37713;53.254;6.460;2023-05-01T01:55:44;6.70;99.90
51637;DHT22;37713;53.254;6.460;2023-05-01T01:58:12;6.70;99.90
51637;DHT22;37713;53.254;6.460;2023-05-01T02:00:43;6.70;99.90
51637;DHT22;37713;53.254;6.460;2023-05-01T02:03:09;6.70;99.90
51637;DHT22;37713;53.254;6.460;2023-05-01T02:05:38;6.70;99.90
51637;DHT22;37713;53.254;6.460;2023-05-01T02:08:05;6.70;99.90
51637;DHT22;37713;53.254;6.460;2023-05-01T02:10:36;6.60;99.90
51637;DHT22;37713;53.254;6.460;2023-05-01T02:13:03;6.60;99.90
51637;DHT22;37713;53.254;6.460;2023-05-01T02:15:31;6.60;99.90
51637;DHT22;37713;53.254;6.460;2023-05-01T02:18:01;6.60;99.90
51637;DHT22;37713;53.254;6.460;2023-05-01T02:20:28;6.60;99.90
51637;DHT22;37713;53.254;6.460;2023-05-01T02:22:55;6.60;99.90
51637;DHT22;37713;53.254;6.460;2023-05-01T02:25:21;6.60;99.90
51637;DHT22;37713;53.254;6.460;2023-05-01T02:27:55;6.60;99.90
51637;DHT22;37713;53.254;6.460;2023-05-01T02:30:22;6.60;99.90
51637;DHT22;37713;53.254;6.460;2023-05-01T02:32:48;6.50;99.90
51637;DHT22;37713;53.254;6.460;2023-05-01T02:35:13;6.50;99.90
51637;DHT22;37713;53.254;6.460;2023-05-01T02:37:42;6.50;99.90
51637;DHT22;37713;53.254;6.460;2023-05-01T02:40:10;6.50;99.90
51637;DHT22;37713;53.254;6.460;2023-05-01T02:42:37;6.50;99.90
51637;DHT22;37713;53.254;6.460;2023-05-01T02:45:06;6.40;99.90
51637;DHT22;37713;53.254;6.460;2023-05-01T02:47:37;6.40;99.90
51637;DHT22;37713;53.254;6.460;2023-05-01T02:50:05;6.40;99.90
51637;DHT22;37713;53.254;6.460;2023-05-01T02:52:32;6.40;99.90
51637;DHT22;37713;53.254;6.460;2023-05-01T02:54:59;6.40;99.90
51637;DHT22;37713;53.254;6.460;2023-05-01T02:57:25;6.30;99.90
51637;DHT22;37713;53.254;6.460;2023-05-01T02:59:51;6.30;99.90
51637;DHT22;37713;53.254;6.460;2023-05-01T03:02:17;6.30;99.90
51637;DHT22;37713;53.254;6.460;2023-05-01T03:04:43;6.30;99.90
51637;DHT22;37713;53.254;6.460;2023-05-01T03:07:09;6.30;99.90
51637;DHT22;37713;53.254;6.460;2023-05-01T03:09:34;6.30;99.90
51637;DHT22;37713;53.254;6.460;2023-05-01T03:12:01;6.30;99.90
51637;DHT22;37713;53.254;6.460;2023-05-01T03:14:27;6.20;99.90
51637;DHT22;37713;53.254;6.460;2023-05-01T03:16:54;6.20;99.90
51637;DHT22;37713;53.254;6.460;2023-05-01T03:19:21;6.20;99.90
51637;DHT22;37713;53.254;6.460;2023-05-01T03:21:46;6.10;99.90
51637;DHT22;37713;53.254;6.460;2023-05-01T03:24:12;6.10;99.90
51637;DHT22;37713;53.254;6.460;2023-05-01T03:26:38;6.10;99.90
51637;DHT22;37713;53.254;6.460;2023-05-01T03:29:04;6.10;99.90
51637;DHT22;37713;53.254;6.460;2023-05-01T03:31:30;6.10;99.90
51637;DHT22;37713;53.254;6.460;2023-05-01T03:33:55;6.10;99.90
51637;DHT22;37713;53.254;6.460;2023-05-01T03:36:21;6.10;99.90
51637;DHT22;37713;53.254;6.460;2023-05-01T03:38:48;6.00;99.90
51637;DHT22;37713;53.254;6.460;2023-05-01T03:41:13;6.00;99.90
51637;DHT22;37713;53.254;6.460;2023-05-01T03:43:40;6.00;99.90
51637;DHT22;37713;53.254;6.460;2023-05-01T03:46:05;6.00;99.90
51637;DHT22;37713;53.254;6.460;2023-05-01T03:48:31;6.00;99.90
51637;DHT22;37713;53.254;6.460;2023-05-01T03:50:57;6.00;99.90
51637;DHT22;37713;53.254;6.460;2023-05-01T03:53:23;5.90;99.90
51637;DHT22;37713;53.254;6.460;2023-05-01T03:55:52;5.90;99.90
51637;DHT22;37713;53.254;6.460;2023-05-01T03:58:18;5.90;99.90
51637;DHT22;37713;53.254;6.460;2023-05-01T04:00:46;5.90;99.90
51637;DHT22;37713;53.254;6.460;2023-05-01T04:03:12;5.90;99.90
51637;DHT22;37713;53.254;6.460;2023-05-01T04:05:38;5.90;99.90
51637;DHT22;37713;53.254;6.460;2023-05-01T04:08:04;5.80;99.90
51637;DHT22;37713;53.254;6.460;2023-05-01T04:10:30;5.80;99.90
51637;DHT22;37713;53.254;6.460;2023-05-01T04:12:56;5.80;99.90
51637;DHT22;37713;53.254;6.460;2023-05-01T04:15:22;5.80;99.90
51637;DHT22;37713;53.254;6.460;2023-05-01T04:17:48;5.70;99.90
51637;DHT22;37713;53.254;6.460;2023-05-01T04:20:17;5.80;99.90
51637;DHT22;37713;53.254;6.460;2023-05-01T04:22:44;5.80;99.90
51637;DHT22;37713;53.254;6.460;2023-05-01T04:25:09;5.80;99.90
51637;DHT22;37713;53.254;6.460;2023-05-01T04:27:37;5.80;99.90
51637;DHT22;37713;53.254;6.460;2023-05-01T04:30:03;5.80;99.90
51637;DHT22;37713;53.254;6.460;2023-05-01T04:32:29;5.90;99.90
51637;DHT22;37713;53.254;6.460;2023-05-01T04:34:54;5.90;99.90
51637;DHT22;37713;53.254;6.460;2023-05-01T04:37:20;5.90;99.90
51637;DHT22;37713;53.254;6.460;2023-05-01T04:39:46;6.00;99.90
51637;DHT22;37713;53.254;6.460;2023-05-01T04:42:12;6.00;99.90
51637;DHT22;37713;53.254;6.460;2023-05-01T04:44:38;6.00;99.90
51637;DHT22;37713;53.254;6.460;2023-05-01T04:47:04;6.00;99.90
51637;DHT22;37713;53.254;6.460;2023-05-01T04:49:30;6.10;99.90
51637;DHT22;37713;53.254;6.460;2023-05-01T04:51:56;6.10;99.90
51637;DHT22;37713;53.254;6.460;2023-05-01T04:54:22;6.20;99.90
51637;DHT22;37713;53.254;6.460;2023-05-01T04:56:49;6.30;99.90
51637;DHT22;37713;53.254;6.460;2023-05-01T04:59:15;6.40;99.90
51637;DHT22;37713;53.254;6.460;2023-05-01T05:01:41;6.50;99.90
51637;DHT22;37713;53.254;6.460;2023-05-01T05:04:07;6.60;99.90
51637;DHT22;37713;53.254;6.460;2023-05-01T05:06:33;6.70;99.90
51637;DHT22;37713;53.254;6.460;2023-05-01T05:08:59;6.80;99.90
51637;DHT22;37713;53.254;6.460;2023-05-01T05:11:28;6.90;99.90
51637;DHT22;37713;53.254;6.460;2023-05-01T05:13:54;7.00;99.90
51637;DHT22;37713;53.254;6.460;2023-05-01T05:16:20;7.10;99.90
51637;DHT22;37713;53.254;6.460;2023-05-01T05:18:46;7.20;99.90
51637;DHT22;37713;53.254;6.460;2023-05-01T05:21:11;7.30;99.90
51637;DHT22;37713;53.254;6.460;2023-05-01T05:23:37;7.40;99.90
51637;DHT22;37713;53.254;6.460;2023-05-01T05:26:03;7.40;99.90
51637;DHT22;37713;53.254;6.460;2023-05-01T05:28:30;7.60;99.90
51637;DHT22;37713;53.254;6.460;2023-05-01T05:30:56;7.70;99.90
51637;DHT22;37713;53.254;6.460;2023-05-01T05:33:22;7.70;99.90
51637;DHT22;37713;53.254;6.460;2023-05-01T05:35:50;7.80;99.90
51637;DHT22;37713;53.254;6.460;2023-05-01T05:38:16;7.90;99.90
51637;DHT22;37713;53.254;6.460;2023-05-01T05:40:42;8.00;99.90
51637;DHT22;37713;53.254;6.460;2023-05-01T05:43:08;8.00;99.90
51637;DHT22;37713;53.254;6.460;2023-05-01T05:45:35;8.10;99.90
51637;DHT22;37713;53.254;6.460;2023-05-01T05:48:02;8.20;99.90
51637;DHT22;37713;53.254;6.460;2023-05-01T05:50:28;8.30;99.90
51637;DHT22;37713;53.254;6.460;2023-05-01T05:52:54;8.30;99.90
51637;DHT22;37713;53.254;6.460;2023-05-01T05:55:20;8.40;99.90
51637;DHT22;37713;53.254;6.460;2023-05-01T05:57:46;8.40;99.90
51637;DHT22;37713;53.254;6.460;2023-05-01T06:00:12;8.50;99.90
51637;DHT22;37713;53.254;6.460;2023-05-01T06:02:38;8.60;99.90
51637;DHT22;37713;53.254;6.460;2023-05-01T06:05:05;8.70;99.90
51637;DHT22;37713;53.254;6.460;2023-05-01T06:07:31;8.80;99.90
51637;DHT22;37713;53.254;6.460;2023-05-01T06:09:56;8.90;99.90
51637;DHT22;37713;53.254;6.460;2023-05-01T06:12:29;9.00;99.90
51637;DHT22;37713;53.254;6.460;2023-05-01T06:14:56;9.30;99.90
51637;DHT22;37713;53.254;6.460;2023-05-01T06:17:23;9.60;99.90
51637;DHT22;37713;53.254;6.460;2023-05-01T06:19:49;9.90;99.90
51637;DHT22;37713;53.254;6.460;2023-05-01T06:22:17;10.20;99.90
51637;DHT22;37713;53.254;6.460;2023-05-01T06:24:43;10.60;99.90
51637;DHT22;37713;53.254;6.460;2023-05-01T06:27:10;11.30;99.90
51637;DHT22;37713;53.254;6.460;2023-05-01T06:29:36;12.20;99.90
51637;DHT22;37713;53.254;6.460;2023-05-01T06:32:02;13.10;99.90
51637;DHT22;37713;53.254;6.460;2023-05-01T06:34:28;13.80;99.90
51637;DHT22;37713;53.254;6.460;2023-05-01T06:36:55;14.30;99.90
51637;DHT22;37713;53.254;6.460;2023-05-01T06:39:20;15.10;99.90
51637;DHT22;37713;53.254;6.460;2023-05-01T06:41:47;15.40;99.90
51637;DHT22;37713;53.254;6.460;2023-05-01T06:44:13;16.00;99.90
51637;DHT22;37713;53.254;6.460;2023-05-01T06:46:39;16.20;99.90
51637;DHT22;37713;53.254;6.460;2023-05-01T06:49:05;16.50;99.90
51637;DHT22;37713;53.254;6.460;2023-05-01T06:51:31;16.80;99.90
51637;DHT22;37713;53.254;6.460;2023-05-01T06:53:57;17.10;99.90
51637;DHT22;37713;53.254;6.460;2023-05-01T06:56:23;17.40;99.90
51637;DHT22;37713;53.254;6.460;2023-05-01T06:58:48;17.80;99.90
51637;DHT22;37713;53.254;6.460;2023-05-01T07:01:15;18.00;99.90
51637;DHT22;37713;53.254;6.460;2023-05-01T07:03:42;18.30;99.90
51637;DHT22;37713;53.254;6.460;2023-05-01T07:06:08;18.70;99.90
51637;DHT22;37713;53.254;6.460;2023-05-01T07:08:34;19.10;99.90
51637;DHT22;37713;53.254;6.460;2023-05-01T07:11:00;19.50;99.90
51637;DHT22;37713;53.254;6.460;2023-05-01T07:13:25;19.90;99.90
51637;DHT22;37713;53.254;6.460;2023-05-01T07:15:51;20.10;99.90
51637;DHT22;37713;53.254;6.460;2023-05-01T07:18:18;20.70;99.90
51637;DHT22;37713;53.254;6.460;2023-05-01T07:20:44;20.80;99.90
51637;DHT22;37713;53.254;6.460;2023-05-01T07:23:10;20.90;99.90
51637;DHT22;37713;53.254;6.460;2023-05-01T07:25:36;21.00;99.90
51637;DHT22;37713;53.254;6.460;2023-05-01T07:28:08;20.70;99.90
51637;DHT22;37713;53.254;6.460;2023-05-01T07:30:38;20.40;99.90
51637;DHT22;37713;53.254;6.460;2023-05-01T07:33:04;20.10;99.90
51637;DHT22;37713;53.254;6.460;2023-05-01T07:35:32;20.00;99.90
51637;DHT22;37713;53.254;6.460;2023-05-01T07:37:58;20.00;99.90
51637;DHT22;37713;53.254;6.460;2023-05-01T07:40:24;20.10;99.90
51637;DHT22;37713;53.254;6.460;2023-05-01T07:42:50;20.10;99.90
51637;DHT22;37713;53.254;6.460;2023-05-01T07:45:16;20.00;99.90
51637;DHT22;37713;53.254;6.460;2023-05-01T07:47:42;20.10;99.90
51637;DHT22;37713;53.254;6.460;2023-05-01T07:50:11;20.20;99.90
51637;DHT22;37713;53.254;6.460;2023-05-01T07:52:38;20.00;99.90
51637;DHT22;37713;53.254;6.460;2023-05-01T07:55:04;19.80;99.90
51637;DHT22;37713;53.254;6.460;2023-05-01T07:57:30;19.70;99.90
51637;DHT22;37713;53.254;6.460;2023-05-01T07:59:59;19.40;99.90
51637;DHT22;37713;53.254;6.460;2023-05-01T08:02:25;19.40;99.90
51637;DHT22;37713;53.254;6.460;2023-05-01T08:04:51;18.90;99.90
51637;DHT22;37713;53.254;6.460;2023-05-01T08:07:17;18.70;99.90
51637;DHT22;37713;53.254;6.460;2023-05-01T08:09:44;18.80;99.90
51637;DHT22;37713;53.254;6.460;2023-05-01T08:12:10;18.70;99.90
51637;DHT22;37713;53.254;6.460;2023-05-01T08:14:36;18.80;99.90
51637;DHT22;37713;53.254;6.460;2023-05-01T08:17:01;18.80;99.90
51637;DHT22;37713;53.254;6.460;2023-05-01T08:19:27;18.90;99.90
51637;DHT22;37713;53.254;6.460;2023-05-01T08:21:53;18.90;99.90
51637;DHT22;37713;53.254;6.460;2023-05-01T08:24:19;19.00;99.90
51637;DHT22;37713;53.254;6.460;2023-05-01T08:26:45;19.50;99.90
51637;DHT22;37713;53.254;6.460;2023-05-01T08:29:11;20.10;99.90
51637;DHT22;37713;53.254;6.460;2023-05-01T08:31:37;20.30;99.90
51637;DHT22;37713;53.254;6.460;2023-05-01T08:34:06;20.70;99.90
51637;DHT22;37713;53.254;6.460;2023-05-01T08:36:33;20.70;99.90
51637;DHT22;37713;53.254;6.460;2023-05-01T08:38:59;20.80;99.90
51637;DHT22;37713;53.254;6.460;2023-05-01T08:41:26;20.90;99.90
51637;DHT22;37713;53.254;6.460;2023-05-01T08:43:55;21.00;99.90
51637;DHT22;37713;53.254;6.460;2023-05-01T08:49:16;20.90;99.90
51637;DHT22;37713;53.254;6.460;2023-05-01T08:51:45;20.70;99.90
51637;DHT22;37713;53.254;6.460;2023-05-01T08:54:15;20.50;99.90
51637;DHT22;37713;53.254;6.460;2023-05-01T08:56:43;20.20;99.90
51637;DHT22;37713;53.254;6.460;2023-05-01T08:59:12;20.20;99.90
51637;DHT22;37713;53.254;6.460;2023-05-01T09:01:40;20.00;99.90
51637;DHT22;37713;53.254;6.460;2023-05-01T09:04:06;19.90;99.90
51637;DHT22;37713;53.254;6.460;2023-05-01T09:06:34;19.90;99.90
51637;DHT22;37713;53.254;6.460;2023-05-01T09:09:01;19.90;99.90
51637;DHT22;37713;53.254;6.460;2023-05-01T09:11:29;19.80;99.90
51637;DHT22;37713;53.254;6.460;2023-05-01T09:13:56;19.70;99.90
51637;DHT22;37713;53.254;6.460;2023-05-01T09:16:22;19.70;99.90
51637;DHT22;37713;53.254;6.460;2023-05-01T09:18:48;19.70;99.90
51637;DHT22;37713;53.254;6.460;2023-05-01T09:21:14;19.60;99.90
51637;DHT22;37713;53.254;6.460;2023-05-01T09:23:40;19.60;99.90
51637;DHT22;37713;53.254;6.460;2023-05-01T09:26:09;19.60;99.90
51637;DHT22;37713;53.254;6.460;2023-05-01T09:28:45;19.70;99.90
51637;DHT22;37713;53.254;6.460;2023-05-01T09:31:26;19.70;99.90
51637;DHT22;37713;53.254;6.460;2023-05-01T09:34:04;19.60;99.90
51637;DHT22;37713;53.254;6.460;2023-05-01T09:36:32;19.50;99.90
51637;DHT22;37713;53.254;6.460;2023-05-01T09:39:00;19.30;99.90
51637;DHT22;37713;53.254;6.460;2023-05-01T09:41:27;19.10;99.90
51637;DHT22;37713;53.254;6.460;2023-05-01T09:43:55;19.10;99.90
51637;DHT22;37713;53.254;6.460;2023-05-01T09:46:22;18.80;99.90
51637;DHT22;37713;53.254;6.460;2023-05-01T09:48:55;18.60;99.90
51637;DHT22;37713;53.254;6.460;2023-05-01T09:51:26;18.60;99.90
51637;DHT22;37713;53.254;6.460;2023-05-01T09:54:02;18.50;99.90
51637;DHT22;37713;53.254;6.460;2023-05-01T09:56:31;18.30;99.90
51637;DHT22;37713;53.254;6.460;2023-05-01T09:59:13;18.20;99.90
51637;DHT22;37713;53.254;6.460;2023-05-01T10:01:43;18.30;99.90
51637;DHT22;37713;53.254;6.460;2023-05-01T10:04:10;18.30;99.90
51637;DHT22;37713;53.254;6.460;2023-05-01T10:06:37;18.40;99.90
51637;DHT22;37713;53.254;6.460;2023-05-01T10:09:04;18.60;99.90
51637;DHT22;37713;53.254;6.460;2023-05-01T10:11:52;18.70;99.90
51637;DHT22;37713;53.254;6.460;2023-05-01T10:14:19;18.80;99.90
51637;DHT22;37713;53.254;6.460;2023-05-01T10:16:45;18.80;99.90
51637;DHT22;37713;53.254;6.460;2023-05-01T10:19:11;18.90;99.90
51637;DHT22;37713;53.254;6.460;2023-05-01T10:21:38;18.90;99.90
51637;DHT22;37713;53.254;6.460;2023-05-01T10:24:04;18.90;99.90
51637;DHT22;37713;53.254;6.460;2023-05-01T10:26:35;18.80;99.90
51637;DHT22;37713;53.254;6.460;2023-05-01T10:29:01;18.80;99.90
51637;DHT22;37713;53.254;6.460;2023-05-01T10:31:28;18.70;99.90
51637;DHT22;37713;53.254;6.460;2023-05-01T10:33:55;18.60;99.90
51637;DHT22;37713;53.254;6.460;2023-05-01T10:36:37;18.70;99.90
51637;DHT22;37713;53.254;6.460;2023-05-01T10:39:04;18.90;99.90
51637;DHT22;37713;53.254;6.460;2023-05-01T10:44:31;18.90;99.90
51637;DHT22;37713;53.254;6.460;2023-05-01T10:46:59;18.70;99.90
51637;DHT22;37713;53.254;6.460;2023-05-01T10:49:25;18.50;99.90
51637;DHT22;37713;53.254;6.460;2023-05-01T10:52:10;18.50;99.90
51637;DHT22;37713;53.254;6.460;2023-05-01T10:54:36;18.60;99.90
51637;DHT22;37713;53.254;6.460;2023-05-01T10:57:02;18.70;99.90
51637;DHT22;37713;53.254;6.460;2023-05-01T11:02:28;18.60;99.90
51637;DHT22;37713;53.254;6.460;2023-05-01T11:04:55;18.70;99.90
51637;DHT22;37713;53.254;6.460;2023-05-01T11:07:22;18.60;99.90
51637;DHT22;37713;53.254;6.460;2023-05-01T11:09:55;18.70;99.90
51637;DHT22;37713;53.254;6.460;2023-05-01T11:15:11;18.70;99.90
51637;DHT22;37713;53.254;6.460;2023-05-01T11:20:46;18.40;99.90
51637;DHT22;37713;53.254;6.460;2023-05-01T11:23:16;18.30;99.90
51637;DHT22;37713;53.254;6.460;2023-05-01T11:25:42;18.50;99.90
51637;DHT22;37713;53.254;6.460;2023-05-01T11:28:11;18.50;99.90
51637;DHT22;37713;53.254;6.460;2023-05-01T11:30:43;18.60;99.90
51637;DHT22;37713;53.254;6.460;2023-05-01T11:33:08;18.80;99.90
51637;DHT22;37713;53.254;6.460;2023-05-01T11:35:34;19.10;99.90
51637;DHT22;37713;53.254;6.460;2023-05-01T11:38:00;19.10;99.90
51637;DHT22;37713;53.254;6.460;2023-05-01T11:40:32;19.20;99.90
51637;DHT22;37713;53.254;6.460;2023-05-01T11:45:25;19.10;99.90
51637;DHT22;37713;53.254;6.460;2023-05-01T11:47:52;18.80;99.90
51637;DHT22;37713;53.254;6.460;2023-05-01T11:50:18;18.70;99.90
51637;DHT22;37713;53.254;6.460;2023-05-01T11:52:48;18.60;99.90
51637;DHT22;37713;53.254;6.460;2023-05-01T11:55:17;18.60;99.90
51637;DHT22;37713;53.254;6.460;2023-05-01T11:57:51;18.50;99.90
51637;DHT22;37713;53.254;6.460;2023-05-01T12:00:34;18.50;99.90
51637;DHT22;37713;53.254;6.460;2023-05-01T12:05:29;18.50;99.90
51637;DHT22;37713;53.254;6.460;2023-05-01T12:08:12;18.50;99.90
51637;DHT22;37713;53.254;6.460;2023-05-01T12:10:43;18.70;99.90
51637;DHT22;37713;53.254;6.460;2023-05-01T12:13:11;18.50;99.90
51637;DHT22;37713;53.254;6.460;2023-05-01T12:15:43;18.50;99.90
51637;DHT22;37713;53.254;6.460;2023-05-01T12:18:10;18.30;99.90
51637;DHT22;37713;53.254;6.460;2023-05-01T12:20:46;18.30;99.90
51637;DHT22;37713;53.254;6.460;2023-05-01T12:23:18;18.10;99.90
51637;DHT22;37713;53.254;6.460;2023-05-01T12:25:44;18.20;99.90
51637;DHT22;37713;53.254;6.460;2023-05-01T12:28:12;18.30;99.90
51637;DHT22;37713;53.254;6.460;2023-05-01T12:30:39;18.40;99.90
51637;DHT22;37713;53.254;6.460;2023-05-01T12:33:13;18.30;99.90
51637;DHT22;37713;53.254;6.460;2023-05-01T12:35:40;18.50;99.90
51637;DHT22;37713;53.254;6.460;2023-05-01T12:38:17;18.60;99.90
51637;DHT22;37713;53.254;6.460;2023-05-01T12:40:52;18.70;99.90
51637;DHT22;37713;53.254;6.460;2023-05-01T12:43:20;18.80;99.90
51637;DHT22;37713;53.254;6.460;2023-05-01T12:45:51;18.90;99.90
51637;DHT22;37713;53.254;6.460;2023-05-01T12:48:17;19.00;99.90
51637;DHT22;37713;53.254;6.460;2023-05-01T12:50:43;19.00;99.90
51637;DHT22;37713;53.254;6.460;2023-05-01T12:53:10;18.90;99.90
51637;DHT22;37713;53.254;6.460;2023-05-01T12:55:44;18.90;99.90
51637;DHT22;37713;53.254;6.460;2023-05-01T12:58:11;19.00;99.90
51637;DHT22;37713;53.254;6.460;2023-05-01T13:03:14;18.90;99.90
51637;DHT22;37713;53.254;6.460;2023-05-01T13:05:54;18.80;99.90
51637;DHT22;37713;53.254;6.460;2023-05-01T13:08:36;18.70;99.90
51637;DHT22;37713;53.254;6.460;2023-05-01T13:13:35;18.30;99.90
51637;DHT22;37713;53.254;6.460;2023-05-01T13:18:32;18.00;99.90
51637;DHT22;37713;53.254;6.460;2023-05-01T13:21:08;18.10;99.90
51637;DHT22;37713;53.254;6.460;2023-05-01T13:23:39;18.30;99.90
51637;DHT22;37713;53.254;6.460;2023-05-01T13:26:06;18.30;99.90
51637;DHT22;37713;53.254;6.460;2023-05-01T13:28:42;18.30;99.90
51637;DHT22;37713;53.254;6.460;2023-05-01T13:31:13;18.30;99.90
51637;DHT22;37713;53.254;6.460;2023-05-01T13:33:40;18.30;99.90
51637;DHT22;37713;53.254;6.460;2023-05-01T13:36:12;18.30;99.90
51637;DHT22;37713;53.254;6.460;2023-05-01T13:38:46;18.30;99.90
51637;DHT22;37713;53.254;6.460;2023-05-01T13:41:19;18.30;99.90
51637;DHT22;37713;53.254;6.460;2023-05-01T13:43:49;18.10;99.90
51637;DHT22;37713;53.254;6.460;2023-05-01T13:46:17;18.00;99.90
51637;DHT22;37713;53.254;6.460;2023-05-01T13:48:44;17.80;99.90
51637;DHT22;37713;53.254;6.460;2023-05-01T13:51:11;17.80;99.90
51637;DHT22;37713;53.254;6.460;2023-05-01T13:53:39;17.80;99.90
51637;DHT22;37713;53.254;6.460;2023-05-01T13:56:09;17.60;99.90
51637;DHT22;37713;53.254;6.460;2023-05-01T13:58:39;17.40;99.90
51637;DHT22;37713;53.254;6.460;2023-05-01T14:01:15;17.40;99.90
51637;DHT22;37713;53.254;6.460;2023-05-01T14:03:42;17.20;99.90
51637;DHT22;37713;53.254;6.460;2023-05-01T14:06:12;17.30;99.90
51637;DHT22;37713;53.254;6.460;2023-05-01T14:08:38;17.30;99.90
51637;DHT22;37713;53.254;6.460;2023-05-01T14:11:08;17.30;99.90
51637;DHT22;37713;53.254;6.460;2023-05-01T14:13:45;17.30;99.90
51637;DHT22;37713;53.254;6.460;2023-05-01T14:16:24;17.40;99.90
51637;DHT22;37713;53.254;6.460;2023-05-01T14:18:52;17.30;99.90
51637;DHT22;37713;53.254;6.460;2023-05-01T14:21:19;17.20;99.90
51637;DHT22;37713;53.254;6.460;2023-05-01T14:23:45;17.30;99.90
51637;DHT22;37713;53.254;6.460;2023-05-01T14:26:17;17.30;99.90
51637;DHT22;37713;53.254;6.460;2023-05-01T14:28:44;17.30;99.90
51637;DHT22;37713;53.254;6.460;2023-05-01T14:33:58;17.20;99.90
51637;DHT22;37713;53.254;6.460;2023-05-01T14:36:25;17.30;99.90
51637;DHT22;37713;53.254;6.460;2023-05-01T14:38:58;17.30;99.90
51637;DHT22;37713;53.254;6.460;2023-05-01T14:41:26;17.30;99.90
51637;DHT22;37713;53.254;6.460;2023-05-01T14:43:53;17.10;99.90
51637;DHT22;37713;53.254;6.460;2023-05-01T14:46:27;17.00;99.90
51637;DHT22;37713;53.254;6.460;2023-05-01T14:48:53;17.20;99.90
51637;DHT22;37713;53.254;6.460;2023-05-01T14:51:19;17.00;99.90
51637;DHT22;37713;53.254;6.460;2023-05-01T14:53:45;17.00;99.90
51637;DHT22;37713;53.254;6.460;2023-05-01T14:56:11;17.10;99.90
51637;DHT22;37713;53.254;6.460;2023-05-01T14:58:37;17.00;99.90
51637;DHT22;37713;53.254;6.460;2023-05-01T15:01:03;17.10;99.90
51637;DHT22;37713;53.254;6.460;2023-05-01T15:03:29;17.00;99.90
51637;DHT22;37713;53.254;6.460;2023-05-01T15:05:55;17.00;99.90
51637;DHT22;37713;53.254;6.460;2023-05-01T15:08:22;17.00;99.90
51637;DHT22;37713;53.254;6.460;2023-05-01T15:10:50;16.90;99.90
51637;DHT22;37713;53.254;6.460;2023-05-01T15:13:16;16.90;99.90
51637;DHT22;37713;53.254;6.460;2023-05-01T15:15:42;16.90;99.90
51637;DHT22;37713;53.254;6.460;2023-05-01T15:18:08;16.90;99.90
51637;DHT22;37713;53.254;6.460;2023-05-01T15:20:33;16.90;99.90
51637;DHT22;37713;53.254;6.460;2023-05-01T15:22:59;16.90;99.90
51637;DHT22;37713;53.254;6.460;2023-05-01T15:25:25;16.90;99.90
51637;DHT22;37713;53.254;6.460;2023-05-01T15:27:52;16.70;99.90
51637;DHT22;37713;53.254;6.460;2023-05-01T15:30:17;16.70;99.90
51637;DHT22;37713;53.254;6.460;2023-05-01T15:32:43;16.50;99.90
51637;DHT22;37713;53.254;6.460;2023-05-01T15:35:09;16.70;99.90
51637;DHT22;37713;53.254;6.460;2023-05-01T15:37:35;16.70;99.90
51637;DHT22;37713;53.254;6.460;2023-05-01T15:40:01;16.90;99.90
51637;DHT22;37713;53.254;6.460;2023-05-01T15:42:28;17.00;99.90
51637;DHT22;37713;53.254;6.460;2023-05-01T15:44:54;17.10;99.90
51637;DHT22;37713;53.254;6.460;2023-05-01T15:47:20;17.30;99.90
51637;DHT22;37713;53.254;6.460;2023-05-01T15:49:46;17.30;99.90
51637;DHT22;37713;53.254;6.460;2023-05-01T15:52:13;17.30;99.90
51637;DHT22;37713;53.254;6.460;2023-05-01T15:54:39;17.30;99.90
51637;DHT22;37713;53.254;6.460;2023-05-01T15:57:04;17.20;99.90
51637;DHT22;37713;53.254;6.460;2023-05-01T15:59:33;17.00;99.90
51637;DHT22;37713;53.254;6.460;2023-05-01T16:01:58;17.00;99.90
51637;DHT22;37713;53.254;6.460;2023-05-01T16:04:27;16.80;99.90
51637;DHT22;37713;53.254;6.460;2023-05-01T16:06:53;16.80;99.90
51637;DHT22;37713;53.254;6.460;2023-05-01T16:09:20;16.70;99.90
51637;DHT22;37713;53.254;6.460;2023-05-01T16:11:47;16.60;99.90
51637;DHT22;37713;53.254;6.460;2023-05-01T16:14:14;16.60;99.90
51637;DHT22;37713;53.254;6.460;2023-05-01T16:16:40;16.50;99.90
51637;DHT22;37713;53.254;6.460;2023-05-01T16:19:07;16.50;99.90
51637;DHT22;37713;53.254;6.460;2023-05-01T16:21:32;16.70;99.90
51637;DHT22;37713;53.254;6.460;2023-05-01T16:24:00;16.90;99.90
51637;DHT22;37713;53.254;6.460;2023-05-01T16:26:28;16.90;99.90
51637;DHT22;37713;53.254;6.460;2023-05-01T16:28:58;16.70;99.90
51637;DHT22;37713;53.254;6.460;2023-05-01T16:31:24;16.60;99.90
51637;DHT22;37713;53.254;6.460;2023-05-01T16:33:51;16.30;99.90